Time;durP1;ratioP1;P1;durP2;ratioP2;P2;SDS_P1;SDS_P2;PMS_P1;PMS_P2;Temp;Humidity;BMP_temperature;BMP_pressure;BME280_temperature;BME280_humidity;BME280_pressure;Samples;Min_cycle;Max_cycle;Signal;HPM_P1;HPM_P2
2022/05/16 00:01:37;;;;;;;4.20;3.20;;;;;;;7.76;67.24;100247.35;214366;1274;140363;-61
2022/05/16 00:06:41;;;;;;;4.70;2.90;;;;;;;7.54;67.37;100250.56;214062;1274;140972;-62
2022/05/16 00:11:44;;;;;;;6.20;3.40;;;;;;;7.34;67.09;100253.83;213239;1274;141663;-64
2022/05/16 00:16:47;;;;;;;8.50;6.60;;;;;;;7.21;68.06;100258.45;213391;1274;140356;-62
2022/05/16 00:21:49;;;;;;;6.60;4.60;;;;;;;7.22;68.55;100258.01;214276;1274;139803;-64
2022/05/16 00:26:58;;;;;;;7.50;5.20;;;;;;;7.19;68.69;100262.44;213343;1274;142311;-62
2022/05/16 00:32:01;;;;;;;5.10;4.40;;;;;;;7.09;68.40;100258.48;212697;1274;152903;-62
2022/05/16 00:37:03;;;;;;;6.50;4.00;;;;;;;6.95;68.12;100262.41;215043;1274;141922;-63
2022/05/16 00:42:06;;;;;;;8.10;5.10;;;;;;;6.86;68.43;100269.13;215262;1274;141008;-62
2022/05/16 00:47:10;;;;;;;6.60;4.70;;;;;;;6.86;68.82;100264.52;213115;1274;139606;-62
2022/05/16 00:52:20;;;;;;;3.80;3.50;;;;;;;6.90;69.02;100263.05;215224;1273;142713;-64
2022/05/16 00:57:33;;;;;;;8.30;3.50;;;;;;;6.93;68.88;100264.08;215905;1274;141799;-64
2022/05/16 01:08:08;;;;;;;4.90;4.30;;;;;;;6.91;69.32;100266.55;215785;1274;140218;-64
2022/05/16 01:13:14;;;;;;;4.60;4.00;;;;;;;6.96;69.57;100267.63;214315;1274;140994;-63
2022/05/16 01:18:22;;;;;;;6.10;4.10;;;;;;;6.90;68.85;100266.18;214877;1274;140778;-64
2022/05/16 01:23:28;;;;;;;6.70;4.10;;;;;;;6.74;68.75;100265.16;214286;1274;141643;-61
2022/05/16 01:28:31;;;;;;;5.50;4.60;;;;;;;6.64;68.93;100266.63;214111;1274;140141;-60
2022/05/16 01:33:35;;;;;;;5.00;4.50;;;;;;;6.55;69.35;100267.23;214693;1274;140032;-61
2022/05/16 01:38:37;;;;;;;7.70;4.20;;;;;;;6.48;69.42;100273.45;215358;1274;140635;-64
2022/05/16 01:43:43;;;;;;;4.70;3.50;;;;;;;6.39;69.65;100271.95;214474;1274;140482;-63
2022/05/16 01:48:46;;;;;;;4.90;3.70;;;;;;;6.38;69.42;100271.90;213917;1272;141349;-63
2022/05/16 01:53:50;;;;;;;3.60;3.30;;;;;;;6.34;69.48;100269.72;214031;1274;141274;-61
2022/05/16 01:58:53;;;;;;;4.00;3.60;;;;;;;6.14;69.49;100264.53;213695;1274;141137;-61
2022/05/16 02:03:56;;;;;;;5.10;4.70;;;;;;;5.91;70.28;100255.18;214046;1274;142701;-61
2022/05/16 02:08:59;;;;;;;4.30;3.90;;;;;;;5.83;71.04;100257.79;214605;1274;139411;-62
2022/05/16 02:14:01;;;;;;;5.70;5.00;;;;;;;5.83;71.37;100261.02;214240;1274;140653;-63
2022/05/16 02:19:04;;;;;;;7.00;5.40;;;;;;;5.94;71.61;100270.48;214005;1274;141536;-62
2022/05/16 02:29:27;;;;;;;9.10;5.90;;;;;;;5.98;71.22;100277.02;214572;1274;142403;-60
2022/05/16 02:34:30;;;;;;;7.70;5.00;;;;;;;5.96;71.23;100280.10;213003;1274;140386;-64
2022/05/16 02:39:33;;;;;;;7.90;5.60;;;;;;;5.92;71.31;100281.29;214427;1276;140096;-62
2022/05/16 02:44:38;;;;;;;6.00;4.00;;;;;;;5.86;71.28;100282.63;213849;1276;141369;-61
2022/05/16 02:49:42;;;;;;;5.40;4.90;;;;;;;5.84;71.17;100283.75;215513;1274;151135;-61
2022/05/16 02:54:46;;;;;;;4.50;4.10;;;;;;;5.91;71.55;100282.29;215943;1274;141734;-63
2022/05/16 02:59:48;;;;;;;5.20;4.70;;;;;;;6.02;71.64;100279.23;215816;1274;140873;-63
2022/05/16 03:04:51;;;;;;;4.90;4.20;;;;;;;6.06;71.21;100281.38;215924;1274;141295;-63
2022/05/16 03:09:54;;;;;;;5.90;3.50;;;;;;;5.90;70.95;100278.42;214395;1274;140030;-63
2022/05/16 03:14:57;;;;;;;5.60;4.30;;;;;;;5.69;70.83;100283.02;215030;1274;139724;-61
2022/05/16 03:20:00;;;;;;;6.40;4.50;;;;;;;5.66;71.68;100282.83;214007;1272;140900;-61
2022/05/16 03:25:06;;;;;;;11.30;4.90;;;;;;;5.73;71.41;100283.88;214192;1275;143320;-61
2022/05/16 03:30:11;;;;;;;6.30;4.40;;;;;;;5.73;71.50;100291.25;213734;1274;144764;-62
2022/05/16 03:35:14;;;;;;;4.70;4.30;;;;;;;5.70;71.45;100301.52;214881;1274;141635;-62
2022/05/16 03:45:39;;;;;;;6.10;3.50;;;;;;;5.70;71.23;100301.05;214280;1274;140209;-61
2022/05/16 03:50:42;;;;;;;7.60;4.60;;;;;;;5.74;71.40;100296.16;214221;1274;140501;-64
2022/05/16 03:55:45;;;;;;;6.40;5.10;;;;;;;6.03;71.71;100294.10;214971;1274;141687;-60
2022/05/16 04:00:48;;;;;;;9.80;5.10;;;;;;;6.42;71.77;100294.08;213913;1275;153910;-61
2022/05/16 04:05:51;;;;;;;5.20;4.60;;;;;;;6.95;71.29;100293.80;213605;1274;141321;-61
2022/05/16 04:10:52;;;;;;;5.70;4.70;;;;;;;7.50;71.22;100290.50;213009;1274;142485;-59
2022/05/16 04:15:58;;;;;;;9.70;4.30;;;;;;;8.11;71.44;100290.02;212765;1274;141571;-62
2022/05/16 04:21:08;;;;;;;15.70;4.90;;;;;;;9.03;70.54;100294.70;215336;1275;140830;-62
2022/05/16 04:26:11;;;;;;;7.50;3.70;;;;;;;10.14;69.37;100296.25;213916;1274;140503;-63
2022/05/16 04:31:13;;;;;;;3.70;3.30;;;;;;;10.61;68.75;100300.45;215233;1275;142283;-63
2022/05/16 04:36:15;;;;;;;4.30;3.60;;;;;;;10.61;68.21;100305.52;214196;1273;142058;-61
2022/05/16 04:46:39;;;;;;;3.80;3.40;;;;;;;11.78;67.09;100296.88;215803;1274;142100;-62
2022/05/16 04:51:43;;;;;;;4.60;3.60;;;;;;;12.17;66.53;100293.40;215805;1274;141035;-62
2022/05/16 04:56:46;;;;;;;4.30;3.50;;;;;;;12.96;65.56;100288.41;216064;1273;140615;-63
2022/05/16 05:01:49;;;;;;;7.50;3.80;;;;;;;13.63;64.86;100286.86;215637;1274;140309;-62
2022/05/16 05:06:53;;;;;;;5.80;3.90;;;;;;;13.82;64.66;100290.19;215228;1273;140428;-62
2022/05/16 05:17:17;;;;;;;3.40;2.80;;;;;;;18.21;58.98;100280.14;214364;1274;142315;-62
2022/05/16 05:22:20;;;;;;;2.80;2.20;;;;;;;22.70;54.60;100276.67;214652;1274;141443;-62
2022/05/16 05:27:22;;;;;;;3.50;2.60;;;;;;;26.11;49.79;100282.27;214512;1274;141406;-62
2022/05/16 05:32:26;;;;;;;12.90;2.80;;;;;;;28.64;45.09;100291.52;213533;1274;142146;-64
2022/05/16 05:37:30;;;;;;;4.00;2.10;;;;;;;30.70;41.31;100292.95;213204;1274;142140;-63
2022/05/16 05:42:33;;;;;;;2.70;1.20;;;;;;;32.25;37.80;100293.25;213627;1274;141475;-63
2022/05/16 05:47:37;;;;;;;4.60;2.60;;;;;;;33.46;34.92;100301.59;213155;1274;139679;-62
2022/05/16 05:52:40;;;;;;;3.40;1.70;;;;;;;34.42;32.65;100305.67;213016;1275;140484;-63
2022/05/16 05:57:43;;;;;;;2.10;0.90;;;;;;;34.79;30.53;100301.17;214756;1274;139856;-65
2022/05/16 06:02:47;;;;;;;3.00;1.60;;;;;;;34.41;29.45;100306.64;213533;1276;141013;-64
2022/05/16 06:07:50;;;;;;;3.10;1.50;;;;;;;33.55;29.14;100308.79;213632;1274;143282;-63
2022/05/16 06:12:56;;;;;;;6.60;2.00;;;;;;;32.27;28.37;100309.22;213647;1274;140686;-63
2022/05/16 06:17:59;;;;;;;3.60;1.30;;;;;;;32.01;28.16;100306.77;215476;1274;140528;-66
2022/05/16 06:23:02;;;;;;;2.60;1.70;;;;;;;30.83;28.27;100310.09;212906;1274;139767;-63
2022/05/16 06:28:11;;;;;;;1.30;0.90;;;;;;;29.47;28.92;100311.99;214494;1274;140249;-63
2022/05/16 06:33:16;;;;;;;1.70;1.10;;;;;;;27.52;29.23;100320.16;214649;1274;140679;-62
2022/05/16 06:38:23;;;;;;;3.60;1.50;;;;;;;25.56;30.38;100324.33;215929;1274;141952;-66
2022/05/16 06:43:27;;;;;;;2.50;1.90;;;;;;;24.24;31.64;100323.05;215839;1274;140317;-64
2022/05/16 06:48:31;;;;;;;3.00;1.60;;;;;;;23.72;32.22;100322.18;215967;1274;140230;-63
2022/05/16 06:53:34;;;;;;;7.20;2.60;;;;;;;23.21;33.07;100322.53;215908;1274;142584;-63
2022/05/16 06:58:36;;;;;;;3.80;2.00;;;;;;;23.11;33.30;100327.48;215966;1274;140023;-65
2022/05/16 07:03:42;;;;;;;3.30;1.40;;;;;;;23.54;33.23;100329.16;215832;1274;140464;-66
2022/05/16 07:08:51;;;;;;;3.30;2.20;;;;;;;25.06;33.06;100325.97;216044;1274;139885;-65
2022/05/16 07:13:54;;;;;;;2.00;1.30;;;;;;;26.05;31.98;100320.05;213234;1275;139714;-64
2022/05/16 07:18:58;;;;;;;5.20;2.00;;;;;;;26.01;31.59;100320.67;215001;1274;139713;-65
2022/05/16 07:24:01;;;;;;;5.50;1.70;;;;;;;26.13;31.90;100316.51;213731;1274;139734;-64
2022/05/16 07:29:04;;;;;;;2.50;2.20;;;;;;;25.95;31.87;100325.66;213733;1274;139761;-64
2022/05/16 07:34:08;;;;;;;2.90;2.00;;;;;;;25.77;32.03;100331.79;214381;1274;139974;-65
2022/05/16 07:39:10;;;;;;;2.40;1.60;;;;;;;25.52;32.21;100327.19;214973;1274;140510;-65
2022/05/16 07:44:13;;;;;;;3.20;1.70;;;;;;;25.32;32.83;100321.87;213333;1274;141552;-65
2022/05/16 07:49:18;;;;;;;3.60;1.60;;;;;;;25.05;32.48;100315.11;212783;1275;1011095;-68
2022/05/16 07:54:21;;;;;;;3.30;1.80;;;;;;;24.71;32.89;100320.47;214119;1274;141666;-65
2022/05/16 07:59:25;;;;;;;6.90;2.00;;;;;;;24.67;33.53;100316.73;213109;1275;140614;-66
2022/05/16 08:04:28;;;;;;;3.90;1.40;;;;;;;24.60;33.76;100318.36;212778;1274;140869;-65
2022/05/16 08:14:55;;;;;;;3.30;1.90;;;;;;;24.01;34.06;100318.23;214838;1274;139744;-65
2022/05/16 08:19:57;;;;;;;3.70;1.30;;;;;;;23.98;34.08;100317.36;214457;1274;141008;-65
2022/05/16 08:25:00;;;;;;;1.20;1.00;;;;;;;23.98;34.29;100311.13;216011;1274;141994;-67
2022/05/16 08:30:09;;;;;;;1.70;1.60;;;;;;;23.73;34.24;100310.36;215774;1274;140508;-65
2022/05/16 08:35:17;;;;;;;5.10;1.60;;;;;;;23.56;34.46;100309.98;214998;1274;141911;-65
2022/05/16 08:40:23;;;;;;;2.80;1.20;;;;;;;23.69;34.48;100310.10;215857;1274;141822;-65
2022/05/16 08:45:28;;;;;;;1.70;1.50;;;;;;;23.80;34.12;100313.17;215824;1274;142941;-65
2022/05/16 08:50:40;;;;;;;2.20;1.50;;;;;;;23.82;34.88;100309.98;215902;1274;141527;-66
2022/05/16 08:55:50;;;;;;;3.50;1.70;;;;;;;23.76;34.71;100316.98;215938;1274;143491;-64
2022/05/16 09:01:01;;;;;;;3.00;1.00;;;;;;;23.82;34.65;100318.42;214362;1274;141999;-64
2022/05/16 09:06:12;;;;;;;2.40;1.20;;;;;;;23.68;33.91;100319.40;214966;1274;140175;-65
2022/05/16 09:11:38;;;;;;;4.50;1.70;;;;;;;23.54;34.12;100314.80;214865;1274;142598;-67
2022/05/16 09:17:12;;;;;;;1.50;1.00;;;;;;;23.68;35.29;100316.95;213385;1274;141528;-65
2022/05/16 09:22:55;;;;;;;1.90;1.20;;;;;;;23.37;34.42;100321.70;213851;1274;142594;-65
2022/05/16 09:33:26;;;;;;;2.30;1.50;;;;;;;22.90;36.11;100312.95;213815;1274;140628;-68
2022/05/16 09:38:33;;;;;;;3.70;1.40;;;;;;;23.19;36.57;100312.08;214117;1274;139919;-68
2022/05/16 09:43:43;;;;;;;3.50;1.90;;;;;;;23.41;35.70;100313.66;213909;1274;141123;-67
2022/05/16 09:48:45;;;;;;;6.70;1.70;;;;;;;23.47;34.60;100311.59;213610;1275;140407;-66
2022/05/16 09:53:48;;;;;;;2.10;1.40;;;;;;;23.50;34.19;100307.81;214137;1274;140686;-67
2022/05/16 09:59:13;;;;;;;4.90;1.40;;;;;;;23.72;34.62;100305.80;214189;1274;140254;-64
2022/05/16 10:04:21;;;;;;;2.10;1.10;;;;;;;23.67;34.42;100303.30;214021;1274;140076;-64
2022/05/16 10:09:37;;;;;;;3.50;1.70;;;;;;;23.59;34.14;100293.42;214339;1274;140046;-63
2022/05/16 10:14:42;;;;;;;5.50;2.20;;;;;;;23.31;34.34;100290.71;214229;1274;140913;-65
2022/05/16 10:19:47;;;;;;;1.90;1.20;;;;;;;23.44;34.12;100284.77;214338;1274;139947;-63
2022/05/16 10:24:53;;;;;;;4.60;1.10;;;;;;;23.58;34.45;100280.38;215168;1274;141038;-64
2022/05/16 10:30:00;;;;;;;2.80;1.70;;;;;;;23.63;33.82;100272.97;214874;1277;140127;-64
2022/05/16 10:35:14;;;;;;;1.00;0.90;;;;;;;23.66;34.58;100266.74;215962;1274;142903;-64
2022/05/16 10:40:28;;;;;;;3.60;1.10;;;;;;;23.76;34.10;100265.30;214713;1276;139873;-64
2022/05/16 10:45:31;;;;;;;2.50;1.20;;;;;;;23.98;33.95;100257.27;214411;1276;141103;-65
2022/05/16 10:50:46;;;;;;;1.60;1.10;;;;;;;24.00;33.01;100256.87;215087;1276;140550;-64
2022/05/16 10:56:13;;;;;;;3.40;1.20;;;;;;;23.91;32.80;100251.06;214162;1277;140936;-64
2022/05/16 11:01:22;;;;;;;2.20;1.00;;;;;;;23.75;32.75;100244.51;213530;1274;139601;-64
2022/05/16 11:06:40;;;;;;;4.30;1.50;;;;;;;23.76;32.63;100243.27;214105;1275;141890;-64
2022/05/16 11:11:48;;;;;;;1.90;1.20;;;;;;;23.73;32.64;100241.55;213900;1274;140780;-63
2022/05/16 11:16:57;;;;;;;2.50;0.90;;;;;;;23.52;32.69;100238.45;214305;1274;140353;-63
2022/05/16 11:22:20;;;;;;;5.10;1.50;;;;;;;23.54;33.28;100241.89;213588;1274;140564;-63
2022/05/16 11:27:32;;;;;;;1.30;0.90;;;;;;;23.37;33.33;100241.61;213398;1274;141005;-64
2022/05/16 11:33:05;;;;;;;2.90;1.30;;;;;;;23.31;33.27;100251.70;213843;1274;141140;-62
2022/05/16 11:38:11;;;;;;;3.50;1.80;;;;;;;23.20;33.85;100249.35;213210;1274;141116;-64
2022/05/16 11:43:24;;;;;;;1.50;1.20;;;;;;;23.36;33.82;100244.78;213407;1275;140969;-64
2022/05/16 11:48:36;;;;;;;2.00;1.40;;;;;;;23.30;33.03;100240.47;213628;1274;141643;-63
2022/05/16 11:54:03;;;;;;;1.90;1.30;;;;;;;23.33;33.48;100232.13;214125;1274;140491;-63
2022/05/16 12:04:54;;;;;;;3.40;1.20;;;;;;;23.64;33.69;100215.57;214691;1274;141257;-64
2022/05/16 12:10:02;;;;;;;1.30;1.00;;;;;;;23.61;33.37;100209.55;215012;1274;140146;-63
2022/05/16 12:15:17;;;;;;;2.60;1.30;;;;;;;23.55;33.33;100210.66;214262;1274;140192;-63
2022/05/16 12:20:42;;;;;;;6.00;1.30;;;;;;;23.43;32.99;100217.95;215102;1273;140848;-63
2022/05/16 12:25:45;;;;;;;1.90;0.90;;;;;;;23.24;32.99;100221.63;215635;1276;142580;-64
2022/05/16 12:30:58;;;;;;;4.40;0.80;;;;;;;23.22;32.83;100220.09;216024;1274;140301;-64
2022/05/16 12:36:02;;;;;;;1.00;1.00;;;;;;;23.18;32.61;100216.38;215577;1274;142033;-63
2022/05/16 12:41:38;;;;;;;1.90;1.00;;;;;;;23.18;32.44;100207.96;215907;1274;140442;-63
2022/05/16 12:46:58;;;;;;;5.20;1.30;;;;;;;23.34;32.73;100204.56;215904;1274;140821;-64
2022/05/16 12:52:24;;;;;;;9.50;1.60;;;;;;;23.54;32.75;100200.31;215526;1274;140210;-63
2022/05/16 12:57:47;;;;;;;4.40;1.30;;;;;;;23.48;32.13;100188.52;215221;1274;151231;-63
2022/05/16 13:03:31;;;;;;;1.00;0.90;;;;;;;23.38;32.16;100184.78;214132;1274;140266;-62
2022/05/16 13:08:42;;;;;;;0.90;0.90;;;;;;;23.29;31.69;100184.90;214040;1274;140028;-64
2022/05/16 13:14:12;;;;;;;1.00;0.90;;;;;;;23.23;31.88;100177.20;213270;1274;140010;-62
2022/05/16 13:19:23;;;;;;;2.10;0.60;;;;;;;23.10;31.82;100176.63;213240;1274;141616;-63
2022/05/16 13:24:30;;;;;;;0.90;0.90;;;;;;;23.18;32.37;100162.30;213759;1274;140561;-63
2022/05/16 13:29:34;;;;;;;4.80;1.30;;;;;;;23.21;32.80;100162.13;213478;1274;140661;-65
2022/05/16 13:34:47;;;;;;;0.80;0.60;;;;;;;23.13;32.30;100160.08;213855;1274;141147;-63
2022/05/16 13:40:02;;;;;;;0.90;0.80;;;;;;;23.08;31.98;100159.98;214169;1274;140712;-64
2022/05/16 13:45:09;;;;;;;2.00;1.10;;;;;;;22.87;32.00;100157.14;213471;1274;141030;-62
2022/05/16 13:50:25;;;;;;;4.50;0.90;;;;;;;22.62;32.18;100157.82;214162;1274;142377;-65
2022/05/16 13:55:30;;;;;;;1.00;0.70;;;;;;;22.39;32.34;100157.38;213516;1274;140369;-63
2022/05/16 14:00:39;;;;;;;2.20;0.80;;;;;;;22.31;32.75;100151.30;214318;1274;141349;-63
2022/05/16 14:05:43;;;;;;;1.10;0.70;;;;;;;22.44;32.64;100144.98;214860;1274;140397;-64
2022/05/16 14:10:49;;;;;;;4.10;1.10;;;;;;;22.61;32.60;100145.50;214701;1274;140059;-63
2022/05/16 14:16:09;;;;;;;2.50;0.90;;;;;;;22.41;31.90;100143.59;215768;1274;140396;-63
2022/05/16 14:21:17;;;;;;;1.80;0.90;;;;;;;22.05;32.18;100141.04;214025;1276;139893;-64
2022/05/16 14:26:26;;;;;;;1.60;0.80;;;;;;;21.76;33.03;100143.07;216027;1275;140495;-64
2022/05/16 14:31:42;;;;;;;1.10;0.80;;;;;;;21.57;33.13;100135.21;215806;1274;140709;-64
2022/05/16 14:36:47;;;;;;;0.70;0.70;;;;;;;21.64;33.50;100132.06;215876;1274;139654;-63
2022/05/16 14:42:04;;;;;;;4.30;0.90;;;;;;;21.77;33.24;100122.59;215459;1274;139873;-63
2022/05/16 14:47:16;;;;;;;2.50;1.00;;;;;;;21.97;33.19;100113.33;215179;1273;140176;-63
2022/05/16 14:52:25;;;;;;;2.20;0.70;;;;;;;21.97;33.09;100110.79;213881;1274;141522;-63
2022/05/16 14:57:39;;;;;;;2.50;0.80;;;;;;;21.77;32.87;100115.58;214791;1274;140195;-63
2022/05/16 15:08:07;;;;;;;0.70;0.70;;;;;;;21.81;33.29;100098.70;213902;1274;140555;-62
2022/05/16 15:13:12;;;;;;;1.10;0.80;;;;;;;21.72;32.99;100099.08;213263;1274;147637;-63
2022/05/16 15:18:16;;;;;;;1.00;0.70;;;;;;;21.67;32.83;100093.92;213376;1274;206890;-62
2022/05/16 15:23:22;;;;;;;1.50;0.80;;;;;;;21.65;32.69;100084.94;213294;1274;140535;-63
2022/05/16 15:28:27;;;;;;;;;;;;;;;21.57;32.58;100081.82;213304;1274;141287;-62
2022/05/16 15:33:38;;;;;;;1.40;0.80;;;;;;;21.29;32.61;100086.11;213949;1274;126705;-63
2022/05/16 15:38:44;;;;;;;;;;;;;;;21.13;32.84;100076.04;214059;1274;141251;-63
2022/05/16 15:43:52;;;;;;;1.90;1.10;;;;;;;21.02;32.95;100068.33;213987;1274;128251;-63
2022/05/16 15:48:57;;;;;;;1.50;1.10;;;;;;;20.83;33.11;100072.19;214508;1274;141257;-63
2022/05/16 15:54:05;;;;;;;1.00;0.90;;;;;;;20.62;33.01;100068.93;213327;1274;141577;-64
2022/05/16 15:59:10;;;;;;;4.40;0.50;;;;;;;20.54;33.29;100062.96;214195;1274;141393;-63
2022/05/16 16:09:41;;;;;;;1.10;0.80;;;;;;;20.45;33.15;100049.41;214139;1274;140760;-63
2022/05/16 16:14:47;;;;;;;2.10;0.80;;;;;;;20.43;33.07;100055.55;215018;1276;140508;-64
2022/05/16 16:19:56;;;;;;;1.30;0.90;;;;;;;20.34;33.51;100064.21;215934;1275;140400;-63
2022/05/16 16:24:59;;;;;;;0.50;0.30;;;;;;;20.16;33.07;100070.72;215800;1276;140749;-63
2022/05/16 16:30:05;;;;;;;3.20;0.80;;;;;;;20.07;32.94;100063.67;214638;1274;140796;-63
2022/05/16 16:35:10;;;;;;;1.50;0.80;;;;;;;19.99;32.88;100062.85;214257;1274;140688;-63
2022/05/16 16:40:17;;;;;;;1.80;0.70;;;;;;;19.93;33.11;100057.08;213361;1274;141745;-63
2022/05/16 16:45:21;;;;;;;0.90;0.90;;;;;;;19.83;32.96;100050.98;215154;1274;141795;-64
2022/05/16 16:50:26;;;;;;;1.60;0.90;;;;;;;19.75;33.36;100044.30;214275;1274;141174;-63
2022/05/16 17:00:54;;;;;;;1.40;0.80;;;;;;;19.46;33.09;100043.23;213267;1276;140731;-63
2022/05/16 17:05:58;;;;;;;2.40;0.70;;;;;;;19.31;33.29;100043.11;213842;1274;238943;-64
2022/05/16 17:11:03;;;;;;;1.60;0.80;;;;;;;19.17;33.84;100049.56;214797;1273;140641;-64
2022/05/16 17:16:09;;;;;;;0.90;0.50;;;;;;;19.11;33.79;100050.63;213652;1274;141147;-64
2022/05/16 17:21:12;;;;;;;0.80;0.70;;;;;;;19.02;33.87;100051.89;214097;1276;139814;-64
2022/05/16 17:26:17;;;;;;;1.30;1.20;;;;;;;18.93;34.50;100051.38;214498;1274;164074;-63
2022/05/16 17:31:26;;;;;;;0.80;0.70;;;;;;;18.80;34.32;100050.60;213818;1274;141494;-64
2022/05/16 17:36:33;;;;;;;1.40;0.60;;;;;;;18.65;34.32;100055.56;213416;1274;164867;-64
2022/05/16 17:41:41;;;;;;;;;;;;;;;18.50;34.46;100060.12;213719;1274;142480;-65
2022/05/16 17:46:50;;;;;;;1.30;1.10;;;;;;;18.30;35.44;100058.66;214397;1274;126964;-63
2022/05/16 17:51:55;;;;;;;0.60;0.60;;;;;;;18.09;36.57;100058.80;213351;1274;142464;-64
2022/05/16 17:57:00;;;;;;;0.70;0.70;;;;;;;17.87;37.52;100065.48;213992;1274;142002;-63
2022/05/16 18:02:05;;;;;;;2.10;0.70;;;;;;;17.63;38.06;100076.25;214496;1274;142122;-63
2022/05/16 18:07:09;;;;;;;0.50;0.50;;;;;;;17.40;38.12;100074.81;215865;1274;142083;-63
2022/05/16 18:17:37;;;;;;;10.90;1.50;;;;;;;16.95;39.24;100081.28;215945;1274;140956;-63
2022/05/16 18:22:42;;;;;;;3.00;1.50;;;;;;;16.72;40.02;100079.52;216014;1274;142096;-63
2022/05/16 18:27:46;;;;;;;8.60;3.90;;;;;;;16.50;40.84;100088.44;216079;1274;141000;-63
2022/05/16 18:32:53;;;;;;;10.50;3.20;;;;;;;16.27;41.09;100088.09;215204;1274;141584;-63
2022/05/16 18:37:56;;;;;;;10.10;3.20;;;;;;;16.01;42.24;100087.71;213769;1274;141161;-64
2022/05/16 18:53:47;;;;;;;8.90;2.90;;;;;;;15.11;44.15;100103.73;213435;1274;152642;-65
2022/05/16 18:58:50;;;;;;;12.40;3.70;;;;;;;14.83;45.08;100113.90;214182;1276;141075;-64
2022/05/16 19:03:54;;;;;;;4.60;3.20;;;;;;;14.49;45.71;100118.83;214127;1274;140632;-64
2022/05/16 19:08:59;;;;;;;6.20;3.00;;;;;;;14.20;46.96;100120.61;213517;1274;141321;-64
2022/05/16 19:14:02;;;;;;;9.50;2.90;;;;;;;14.04;47.49;100122.01;213704;1274;141613;-63
2022/05/16 19:19:06;;;;;;;5.50;2.50;;;;;;;13.75;48.21;100123.85;214191;1274;234200;-63
2022/05/16 19:24:12;;;;;;;3.50;2.50;;;;;;;13.38;49.09;100124.04;214430;1274;141837;-62
2022/05/16 19:34:40;;;;;;;7.10;3.30;;;;;;;12.92;50.57;100131.52;213447;1274;142275;-65
2022/05/16 19:39:44;;;;;;;14.00;3.80;;;;;;;12.84;50.96;100129.88;214037;1274;140474;-61
2022/05/16 19:44:51;;;;;;;;;;;;;;;12.70;51.44;100130.54;213516;1273;141469;-62
2022/05/16 19:49:57;;;;;;;2.20;1.70;;;;;;;12.38;51.82;100134.86;215094;1274;394194;-64
2022/05/16 19:55:00;;;;;;;15.10;3.10;;;;;;;12.13;52.31;100135.81;213516;1274;141839;-63
2022/05/16 20:00:06;;;;;;;1.90;1.70;;;;;;;11.93;52.72;100140.01;215031;1274;141867;-64
2022/05/16 20:05:09;;;;;;;3.40;2.30;;;;;;;11.75;52.90;100143.60;215561;1274;142216;-62
2022/05/16 20:10:14;;;;;;;2.20;1.90;;;;;;;11.62;53.67;100137.50;215936;1274;140295;-63
2022/05/16 20:15:16;;;;;;;4.10;1.70;;;;;;;11.54;54.22;100136.48;215967;1274;141800;-63
2022/05/16 20:20:20;;;;;;;5.40;1.80;;;;;;;11.55;54.42;100141.80;215969;1274;140726;-62
2022/05/16 20:25:26;;;;;;;7.20;3.00;;;;;;;11.42;54.49;100139.50;215632;1274;141520;-62
2022/05/16 20:30:32;;;;;;;6.50;2.10;;;;;;;11.36;55.26;100146.65;215024;1274;142091;-64
2022/05/16 20:35:38;;;;;;;10.90;3.00;;;;;;;11.29;55.47;100140.21;215182;1274;247970;-64
2022/05/16 20:40:45;;;;;;;4.00;2.50;;;;;;;11.22;55.99;100133.67;214875;1274;142818;-63
2022/05/16 20:45:48;;;;;;;12.00;2.30;;;;;;;11.14;56.48;100137.36;213119;1274;142173;-64
2022/05/16 20:50:52;;;;;;;6.00;2.80;;;;;;;11.08;57.66;100134.77;214469;1274;140877;-62
2022/05/16 20:55:56;;;;;;;8.80;3.20;;;;;;;11.05;57.88;100137.27;213522;1274;141957;-64
2022/05/16 21:01:20;;;;;;;3.90;2.50;;;;;;;11.01;57.91;100140.83;213220;1274;143725;-61
2022/05/16 21:06:23;;;;;;;5.00;2.70;;;;;;;10.91;58.02;100140.98;213657;1274;141419;-65
2022/05/16 21:11:27;;;;;;;4.20;2.70;;;;;;;10.84;58.34;100140.70;214432;1274;140291;-63
2022/05/16 21:16:30;;;;;;;6.70;3.10;;;;;;;10.80;58.66;100139.68;213867;1274;204887;-64
2022/05/16 21:21:33;;;;;;;6.30;2.80;;;;;;;10.70;58.81;100138.71;213945;1274;141266;-63
2022/05/16 21:26:36;;;;;;;3.90;2.30;;;;;;;10.62;59.05;100141.59;214211;1274;141246;-65
2022/05/16 21:31:40;;;;;;;6.90;2.80;;;;;;;10.59;59.50;100139.61;213774;1274;140924;-63
2022/05/16 21:36:42;;;;;;;5.60;3.00;;;;;;;10.64;59.50;100140.95;214056;1274;141088;-62
2022/05/16 21:41:45;;;;;;;5.50;3.10;;;;;;;10.60;59.39;100137.02;214098;1274;141888;-61
2022/05/16 21:46:49;;;;;;;5.10;2.50;;;;;;;10.51;59.80;100138.30;213267;1274;140487;-61
2022/05/16 21:51:52;;;;;;;6.90;3.80;;;;;;;10.48;60.51;100143.27;214512;1274;142507;-64
2022/05/16 21:56:54;;;;;;;7.10;4.10;;;;;;;10.45;60.34;100143.30;214559;1274;140944;-62
2022/05/16 22:01:57;;;;;;;12.30;5.00;;;;;;;10.37;60.75;100143.95;214806;1274;140750;-62
2022/05/16 22:07:00;;;;;;;7.20;4.60;;;;;;;10.39;61.11;100144.58;215133;1274;140792;-62
2022/05/16 22:12:08;;;;;;;13.40;4.60;;;;;;;10.45;61.08;100140.06;216108;1274;141840;-61
2022/05/16 22:17:12;;;;;;;5.90;3.50;;;;;;;10.47;61.15;100139.63;215961;1274;142024;-63
2022/05/16 22:22:17;;;;;;;7.70;3.80;;;;;;;10.36;61.11;100126.48;216097;1274;141576;-62
2022/05/16 22:27:21;;;;;;;4.70;4.10;;;;;;;10.21;61.65;100121.45;216024;1274;140434;-62
2022/05/16 22:32:23;;;;;;;8.00;5.30;;;;;;;10.14;62.24;100123.67;216085;1274;139834;-62
2022/05/16 22:37:26;;;;;;;8.10;5.40;;;;;;;10.21;62.81;100122.68;214567;1274;140696;-62
2022/05/16 22:42:30;;;;;;;8.40;4.80;;;;;;;10.24;62.73;100125.23;215564;1274;141217;-62
2022/05/16 22:47:34;;;;;;;9.70;5.50;;;;;;;10.18;62.71;100130.26;213649;1274;141261;-62
2022/05/16 22:52:37;;;;;;;10.80;5.50;;;;;;;10.07;62.81;100133.14;214639;1274;141166;-61
2022/05/16 22:57:40;;;;;;;11.50;7.10;;;;;;;9.93;63.07;100131.74;214414;1274;152074;-60
2022/05/16 23:08:05;;;;;;;14.40;6.80;;;;;;;9.79;63.67;100128.67;214246;1274;141041;-61
2022/05/16 23:13:10;;;;;;;10.90;5.50;;;;;;;9.64;63.93;100133.00;213324;1275;140439;-62
2022/05/16 23:18:14;;;;;;;11.50;5.70;;;;;;;9.52;64.46;100126.91;214384;1274;140269;-61
2022/05/16 23:23:18;;;;;;;21.30;7.30;;;;;;;9.58;65.15;100133.42;214268;1274;140753;-60
2022/05/16 23:28:21;;;;;;;11.10;6.80;;;;;;;9.68;65.38;100121.91;214403;1274;140960;-61
2022/05/16 23:33:24;;;;;;;12.60;6.30;;;;;;;9.73;65.47;100112.89;215185;1274;141562;-62
2022/05/16 23:38:27;;;;;;;11.40;7.40;;;;;;;9.71;65.28;100110.91;213307;1274;141145;-61
2022/05/16 23:43:30;;;;;;;13.90;6.20;;;;;;;9.66;65.48;100111.27;214927;1274;141477;-64
2022/05/16 23:48:35;;;;;;;15.40;7.80;;;;;;;9.67;65.65;100109.18;213938;1274;141306;-63
2022/05/16 23:53:39;;;;;;;13.30;7.10;;;;;;;9.77;66.18;100104.90;214650;1274;163634;-64
2022/05/16 23:58:41;;;;;;;8.30;5.60;;;;;;;9.87;65.98;100105.77;215362;1274;141302;-62
